createdAt,value
2023-02-15T00:02:45.328Z,102841.91
2023-02-15T00:07:51.474Z,102846.16
2023-02-15T00:12:58.353Z,102864.16
2023-02-15T00:18:04.232Z,102862.41
2023-02-15T00:23:09.740Z,102873.53
2023-02-15T00:28:15.102Z,102871.75
2023-02-15T00:33:19.688Z,102873.38
2023-02-15T00:38:24.333Z,102868.13
2023-02-15T00:43:30.456Z,102901.66
2023-02-15T00:48:35.463Z,102886.94
2023-02-15T00:53:42.528Z,102875.59
2023-02-15T00:58:47.211Z,102878.09
2023-02-15T01:03:52.049Z,102879.63
2023-02-15T01:08:56.688Z,102872.59
2023-02-15T01:14:03.192Z,102889.78
2023-02-15T01:19:08.428Z,102900.94
2023-02-15T01:24:17.124Z,102887.81
2023-02-15T01:29:21.782Z,102882.56
2023-02-15T01:34:26.324Z,102904.91
2023-02-15T01:39:31.011Z,102871.78
2023-02-15T01:44:51.016Z,102872.41
2023-02-15T01:50:20.680Z,102898.25
2023-02-15T01:55:29.528Z,102883.38
2023-02-15T02:00:35.758Z,102888.38
2023-02-15T02:05:43.479Z,102877.81
2023-02-15T02:10:50.297Z,102870.69
2023-02-15T02:16:25.125Z,102885.88
2023-02-15T02:22:06.437Z,102882.06
2023-02-15T02:27:30.574Z,102866.00
2023-02-15T02:32:56.556Z,102860.41
2023-02-15T02:38:14.855Z,102861.19
2023-02-15T02:43:28.602Z,102852.41
2023-02-15T02:48:35.051Z,102852.28
2023-02-15T02:53:40.128Z,102843.63
2023-02-15T02:59:02.253Z,102839.00
2023-02-15T03:04:25.228Z,102844.75
2023-02-15T03:09:45.154Z,102821.03
2023-02-15T03:14:58.855Z,102817.22
2023-02-15T03:20:38.884Z,102794.25
2023-02-15T03:26:07.084Z,102785.19
2023-02-15T03:31:16.258Z,102773.38
2023-02-15T03:36:23.570Z,102774.63
2023-02-15T03:41:35.251Z,102759.00
2023-02-15T03:46:50.572Z,102753.44
2023-02-15T03:52:00.906Z,102753.03
2023-02-15T03:57:27.554Z,102719.63
2023-02-15T04:02:41.085Z,102708.28
2023-02-15T04:07:45.822Z,102705.63
2023-02-15T04:12:50.726Z,102701.47
2023-02-15T04:17:55.400Z,102687.53
2023-02-15T04:23:17.897Z,102676.09
2023-02-15T04:28:23.693Z,102698.28
2023-02-15T04:33:32.338Z,102647.28
2023-02-15T04:38:37.708Z,102631.97
2023-02-15T04:43:43.364Z,102645.72
2023-02-15T04:49:01.522Z,102613.25
2023-02-15T04:54:16.736Z,102605.94
2023-02-15T04:59:29.637Z,102597.75
2023-02-15T05:04:35.335Z,102580.03
2023-02-15T05:09:41.867Z,102611.38
2023-02-15T05:14:51.727Z,102553.72
2023-02-15T05:19:56.787Z,102565.44
2023-02-15T05:25:20.675Z,102533.50
2023-02-15T05:30:27.587Z,102584.03
2023-02-15T05:35:39.312Z,102546.34
2023-02-15T05:41:34.148Z,102527.91
2023-02-15T05:47:05.048Z,102501.25
2023-02-15T05:52:22.153Z,102561.63
2023-02-15T05:57:45.652Z,102476.88
2023-02-15T06:09:59.424Z,102490.63
2023-02-15T06:15:08.647Z,102456.31
2023-02-15T06:20:16.047Z,102451.41
2023-02-15T06:25:22.068Z,102458.94
2023-02-15T06:30:28.173Z,102434.22
2023-02-15T06:35:33.245Z,102454.19
2023-02-15T06:40:37.900Z,102443.59
2023-02-15T06:45:45.175Z,102441.56
2023-02-15T06:50:51.011Z,102450.00
2023-02-15T06:55:55.636Z,102438.56
2023-02-15T07:01:00.599Z,102474.13
2023-02-15T07:06:10.307Z,102412.41
2023-02-15T07:11:33.083Z,102402.84
2023-02-15T07:16:37.689Z,102430.06
2023-02-15T07:21:42.321Z,102403.91
2023-02-15T07:26:48.538Z,102395.13
2023-02-15T07:31:53.765Z,102402.06
2023-02-15T07:36:58.256Z,102396.84
2023-02-15T07:42:03.438Z,102388.28
2023-02-15T07:47:10.336Z,102395.41
2023-02-15T07:52:15.190Z,102386.91
2023-02-15T07:57:19.937Z,102384.56
2023-02-15T08:02:24.644Z,102385.53
2023-02-15T08:07:29.272Z,102377.75
2023-02-15T08:12:34.013Z,102378.94
2023-02-15T08:17:39.760Z,102424.44
2023-02-15T08:22:44.436Z,102379.41
2023-02-15T08:27:49.024Z,102367.81
2023-02-15T08:32:53.685Z,102362.91
2023-02-15T08:37:58.294Z,102364.19
2023-02-15T08:43:02.917Z,102371.63
2023-02-15T08:48:07.667Z,102358.75
2023-02-15T08:53:12.297Z,102367.75
2023-02-15T08:58:16.816Z,102384.69
2023-02-15T09:03:22.300Z,102398.22
2023-02-15T09:08:28.225Z,102375.97
2023-02-15T09:13:33.983Z,102425.91
2023-02-15T09:18:41.438Z,102364.53
2023-02-15T09:23:49.140Z,102369.28
2023-02-15T09:29:00.788Z,102370.56
2023-02-15T09:34:06.283Z,102375.50
2023-02-15T09:39:16.068Z,102378.69
2023-02-15T09:44:39.440Z,102374.84
2023-02-15T09:50:26.364Z,102370.97
2023-02-15T09:55:57.360Z,102372.31
2023-02-15T10:01:24.747Z,102386.53
2023-02-15T10:06:45.766Z,102382.53
2023-02-15T10:11:59.572Z,102385.50
2023-02-15T10:17:18.826Z,102390.91
2023-02-15T10:22:52.090Z,102389.53
2023-02-15T10:27:56.710Z,102388.03
2023-02-15T10:33:28.609Z,102394.50
2023-02-15T10:38:51.887Z,102388.69
2023-02-15T10:44:14.895Z,102397.63
2023-02-15T10:49:59.239Z,102397.09
2023-02-15T10:55:41.962Z,102426.91
2023-02-15T11:00:53.156Z,102401.09
2023-02-15T11:06:17.614Z,102401.25
2023-02-15T11:11:26.269Z,102403.13
2023-02-15T11:16:40.179Z,102404.16
2023-02-15T11:21:52.347Z,102395.88
2023-02-15T11:27:09.197Z,102402.97
2023-02-15T11:32:35.901Z,102397.97
2023-02-15T11:37:49.142Z,102398.91
2023-02-15T11:42:58.960Z,102405.13
2023-02-15T11:48:11.199Z,102449.50
2023-02-15T11:53:20.546Z,102426.16
2023-02-15T11:58:45.788Z,102396.97
2023-02-15T12:03:52.103Z,102407.66
2023-02-15T12:09:05.985Z,102391.50
2023-02-15T12:14:14.094Z,102420.47
2023-02-15T12:19:46.917Z,102389.03
2023-02-15T12:24:54.712Z,102398.97
2023-02-15T12:30:26.049Z,102385.44
2023-02-15T12:35:37.032Z,102381.47
2023-02-15T12:40:44.088Z,102404.25
2023-02-15T12:45:50.269Z,102420.88
2023-02-15T12:50:58.415Z,102395.19
2023-02-15T12:56:07.476Z,102392.69
2023-02-15T13:01:15.944Z,102391.06
2023-02-15T13:06:21.708Z,102382.50
2023-02-15T13:11:36.494Z,102379.94
2023-02-15T13:16:44.965Z,102381.75
2023-02-15T13:21:53.181Z,102380.97
2023-02-15T13:27:14.617Z,102378.53
2023-02-15T13:32:41.744Z,102369.97
2023-02-15T13:37:50.704Z,102361.41
2023-02-15T13:43:15.611Z,102370.16
2023-02-15T13:48:45.008Z,102356.41
2023-02-15T13:54:20.796Z,102388.38
2023-02-15T13:59:49.604Z,102342.69
2023-02-15T14:05:20.511Z,102338.31
2023-02-15T14:10:48.377Z,102330.59
2023-02-15T14:16:13.414Z,102334.06
2023-02-15T14:21:26.402Z,102323.72
2023-02-15T14:26:48.900Z,102328.16
2023-02-15T14:32:03.173Z,102322.22
2023-02-15T14:37:09.466Z,102323.19
2023-02-15T14:42:33.229Z,102319.06
2023-02-15T14:47:46.118Z,102313.97
2023-02-15T14:53:40.796Z,102304.59
2023-02-15T14:59:16.445Z,102310.72
2023-02-15T15:04:39.626Z,102309.03
2023-02-15T15:09:49.856Z,102309.03
2023-02-15T15:14:57.406Z,102327.19
2023-02-15T15:20:05.540Z,102299.53
2023-02-15T15:25:31.445Z,102289.97
2023-02-15T15:30:36.319Z,102296.88
2023-02-15T15:36:23.088Z,102286.66
2023-02-15T15:41:34.878Z,102292.00
2023-02-15T15:46:55.052Z,102290.47
2023-02-15T15:52:12.741Z,102280.34
2023-02-15T15:57:46.098Z,102278.75
2023-02-15T16:03:01.165Z,102288.38
2023-02-15T16:08:06.085Z,102294.41
2023-02-15T16:13:16.435Z,102284.03
2023-02-15T16:18:27.443Z,102280.50
2023-02-15T16:23:48.274Z,102284.69
2023-02-15T16:28:54.397Z,102284.63
2023-02-15T16:33:59.043Z,102276.78
2023-02-15T16:39:21.216Z,102267.25
2023-02-15T16:44:25.869Z,102263.81
2023-02-15T16:49:31.896Z,102261.44
2023-02-15T16:54:38.532Z,102256.41
2023-02-15T16:59:48.749Z,102259.06
2023-02-15T17:05:13.694Z,102262.66
2023-02-15T17:10:47.673Z,102244.72
2023-02-15T17:16:25.700Z,102249.97
2023-02-15T17:21:44.006Z,102252.56
2023-02-15T17:26:54.248Z,102261.13
2023-02-15T17:32:00.423Z,102252.53
2023-02-15T17:37:06.320Z,102249.06
2023-02-15T17:42:11.105Z,102231.88
2023-02-15T17:47:28.900Z,102219.88
2023-02-15T17:52:34.864Z,102242.38
2023-02-15T17:57:40.504Z,102226.94
2023-02-15T18:03:03.004Z,102227.06
2023-02-15T18:08:31.759Z,102229.72
2023-02-15T18:13:36.200Z,102218.69
2023-02-15T18:18:41.931Z,102217.91
2023-02-15T18:23:47.067Z,102217.97
2023-02-15T18:28:52.788Z,102214.50
2023-02-15T18:34:01.096Z,102235.13
2023-02-15T18:39:14.842Z,102211.91
2023-02-15T18:44:19.483Z,102206.78
2023-02-15T18:49:25.840Z,102208.50
2023-02-15T18:54:32.842Z,102201.63
2023-02-15T18:59:37.952Z,102196.56
2023-02-15T19:04:43.203Z,102194.09
2023-02-15T19:09:52.156Z,102178.66
2023-02-15T19:14:59.578Z,102174.41
2023-02-15T19:20:04.372Z,102165.81
2023-02-15T19:25:10.882Z,102188.25
2023-02-15T19:30:21.352Z,102163.31
2023-02-15T19:35:28.668Z,102150.41
2023-02-15T19:40:37.941Z,102147.75
2023-02-15T19:45:42.822Z,102166.69
2023-02-15T19:50:49.426Z,102142.59
2023-02-15T19:55:56.470Z,102169.28
2023-02-15T20:01:01.882Z,102147.84
2023-02-15T20:06:07.732Z,102143.59
2023-02-15T20:11:14.588Z,102125.59
2023-02-15T20:16:20.535Z,102167.72
2023-02-15T20:21:25.814Z,102139.38
2023-02-15T20:26:34.224Z,102147.16
2023-02-15T20:31:41.801Z,102135.09
2023-02-15T20:36:47.107Z,102173.69
2023-02-15T20:41:52.207Z,102145.25
2023-02-15T20:46:59.139Z,102119.34
2023-02-15T20:52:06.713Z,102151.22
2023-02-15T20:57:15.649Z,102138.31
2023-02-15T21:02:24.630Z,102116.75
2023-02-15T21:07:30.654Z,102153.00
2023-02-15T21:12:36.752Z,102118.69
2023-02-15T21:17:42.958Z,102114.50
2023-02-15T21:22:49.300Z,102121.38
2023-02-15T21:27:54.428Z,102122.22
2023-02-15T21:33:00.620Z,102117.06
2023-02-15T21:38:08.208Z,102115.34
2023-02-15T21:43:44.157Z,102106.75
2023-02-15T21:48:49.660Z,102106.88
2023-02-15T21:53:56.575Z,102098.34
2023-02-15T21:59:01.611Z,102094.16
2023-02-15T22:04:17.778Z,102090.66
2023-02-15T22:09:25.592Z,102092.34
2023-02-15T22:14:35.466Z,102092.34
2023-02-15T22:19:41.711Z,102093.22
2023-02-15T22:24:48.425Z,102102.72
2023-02-15T22:29:54.154Z,102106.22
2023-02-15T22:35:00.795Z,102095.09
2023-02-15T22:40:06.508Z,102108.88
2023-02-15T22:45:17.270Z,102119.19
2023-02-15T22:50:27.193Z,102108.06
2023-02-15T22:55:39.174Z,102120.13
2023-02-15T23:00:44.453Z,102116.72
2023-02-15T23:05:50.296Z,102127.03
2023-02-15T23:10:58.376Z,102121.00
2023-02-15T23:16:06.644Z,102121.91
2023-02-15T23:21:25.530Z,102127.09
2023-02-15T23:26:32.850Z,102135.69
2023-02-15T23:31:42.075Z,102146.84
2023-02-15T23:36:46.627Z,102161.38
2023-02-15T23:41:51.279Z,102155.38
2023-02-15T23:46:59.363Z,102158.78
2023-02-15T23:52:04.099Z,102159.53
2023-02-15T23:57:13.109Z,102155.16
